createdAt,value
2018-05-08T00:04:46.000Z,11.40
2018-05-08T00:09:51.345Z,11.60
2018-05-08T00:12:20.526Z,11.64
2018-05-08T00:14:49.783Z,11.81
2018-05-08T00:17:19.013Z,11.90
2018-05-08T00:19:48.286Z,11.88
2018-05-08T00:24:53.187Z,11.97
2018-05-08T00:27:22.452Z,11.84
2018-05-08T00:29:51.497Z,11.95
2018-05-08T00:32:20.542Z,11.88
2018-05-08T00:34:49.858Z,11.96
2018-05-08T00:37:18.921Z,11.89
2018-05-08T00:39:48.044Z,11.81
2018-05-08T00:42:17.039Z,11.69
2018-05-08T00:44:46.373Z,11.57
2018-05-08T00:49:51.159Z,11.60
2018-05-08T00:52:20.223Z,11.50
2018-05-08T00:55:11.032Z,11.32
2018-05-08T00:57:40.085Z,11.19
2018-05-08T01:00:09.138Z,11.23
2018-05-08T01:02:38.461Z,11.23
2018-05-08T01:05:07.499Z,11.33
2018-05-08T01:07:36.563Z,11.20
2018-05-08T01:10:05.596Z,11.10
2018-05-08T01:12:34.991Z,11.15
2018-05-08T01:15:04.050Z,11.18
2018-05-08T01:17:34.000Z,11.25
2018-05-08T01:20:04.092Z,11.34
2018-05-08T01:22:33.162Z,11.24
2018-05-08T01:25:03.138Z,11.17
2018-05-08T01:27:32.187Z,11.11
2018-05-08T01:30:01.247Z,11.01
2018-05-08T01:32:30.318Z,10.92
2018-05-08T01:34:59.362Z,10.89
2018-05-08T01:37:28.407Z,10.97
2018-05-08T01:39:57.550Z,10.85
2018-05-08T01:42:26.586Z,10.72
2018-05-08T01:44:55.641Z,10.82
2018-05-08T01:47:24.853Z,10.70
2018-05-08T01:52:29.602Z,10.77
2018-05-08T01:54:59.606Z,10.57
2018-05-08T01:57:28.737Z,10.51
2018-05-08T01:59:59.748Z,10.59
2018-05-08T02:02:28.787Z,10.53
2018-05-08T02:04:57.842Z,10.45
2018-05-08T02:07:26.885Z,10.38
2018-05-08T02:09:55.930Z,10.24
2018-05-08T02:12:24.978Z,10.27
2018-05-08T02:14:54.024Z,10.14
2018-05-08T02:17:23.066Z,10.02
2018-05-08T02:19:52.118Z,9.95
2018-05-08T02:22:21.301Z,9.87
2018-05-08T02:24:50.329Z,9.82
2018-05-08T02:27:19.374Z,9.97
2018-05-08T02:29:48.404Z,9.93
2018-05-08T02:32:17.675Z,9.86
2018-05-08T02:34:46.933Z,9.82
2018-05-08T02:37:17.307Z,9.78
2018-05-08T02:39:46.362Z,9.78
2018-05-08T02:42:15.421Z,9.87
2018-05-08T02:44:44.496Z,9.92
2018-05-08T02:47:13.516Z,9.94
2018-05-08T02:49:42.559Z,9.91
2018-05-08T02:52:11.877Z,9.86
2018-05-08T02:54:40.928Z,9.65
2018-05-08T02:57:10.010Z,9.49
2018-05-08T02:59:40.990Z,9.40
2018-05-08T03:02:10.035Z,9.35
2018-05-08T03:04:39.336Z,9.40
2018-05-08T03:09:44.565Z,9.67
2018-05-08T03:12:15.602Z,9.46
2018-05-08T03:14:44.899Z,9.30
2018-05-08T03:17:14.995Z,9.23
2018-05-08T03:19:44.292Z,9.25
2018-05-08T03:22:13.352Z,9.19
2018-05-08T03:24:42.502Z,9.15
2018-05-08T03:27:11.537Z,9.34
2018-05-08T03:29:41.603Z,9.44
2018-05-08T03:32:11.593Z,9.47
2018-05-08T03:34:40.771Z,9.50
2018-05-08T03:37:09.979Z,9.51
2018-05-08T03:39:39.034Z,9.44
2018-05-08T03:42:08.125Z,9.22
2018-05-08T03:44:37.173Z,9.09
2018-05-08T03:47:07.218Z,8.98
2018-05-08T03:49:36.260Z,8.97
2018-05-08T03:52:05.464Z,8.96
2018-05-08T03:54:34.554Z,8.92
2018-05-08T03:57:03.611Z,8.98
2018-05-08T03:59:32.676Z,9.01
2018-05-08T04:04:55.429Z,8.86
2018-05-08T04:07:42.264Z,8.60
2018-05-08T04:10:11.636Z,8.43
2018-05-08T04:12:42.050Z,8.35
2018-05-08T04:15:11.172Z,8.42
2018-05-08T04:17:41.228Z,8.41
2018-05-08T04:20:10.692Z,8.47
2018-05-08T04:22:39.733Z,8.53
2018-05-08T04:25:08.788Z,8.51
2018-05-08T04:27:38.031Z,8.49
2018-05-08T04:32:43.029Z,8.80
2018-05-08T04:35:12.311Z,8.73
2018-05-08T04:37:41.362Z,8.77
2018-05-08T04:40:10.426Z,8.80
2018-05-08T04:45:16.167Z,9.23
2018-05-08T04:47:47.670Z,9.30
2018-05-08T04:50:16.828Z,9.41
2018-05-08T04:55:21.533Z,9.85
2018-05-08T04:57:50.595Z,9.92
2018-05-08T05:00:20.101Z,10.17
2018-05-08T05:05:24.839Z,10.12
2018-05-08T05:07:53.893Z,10.24
2018-05-08T05:10:23.206Z,10.17
2018-05-08T05:12:52.238Z,10.33
2018-05-08T05:15:21.522Z,10.51
2018-05-08T05:17:50.762Z,10.58
2018-05-08T05:20:19.796Z,10.69
2018-05-08T05:25:24.633Z,11.04
2018-05-08T05:27:53.708Z,11.15
2018-05-08T05:30:22.776Z,11.26
2018-05-08T05:32:52.506Z,11.43
2018-05-08T05:35:21.550Z,11.59
2018-05-08T05:40:26.489Z,12.08
2018-05-08T05:42:56.653Z,12.26
2018-05-08T05:45:25.707Z,12.30
2018-05-08T05:47:54.860Z,12.43
2018-05-08T05:50:24.302Z,12.59
2018-05-08T05:52:53.367Z,12.68
2018-05-08T05:55:22.899Z,12.79
2018-05-08T05:57:51.955Z,13.03
2018-05-08T06:00:22.686Z,13.12
2018-05-08T06:02:51.722Z,13.33
2018-05-08T06:05:20.757Z,13.29
2018-05-08T06:07:49.828Z,13.43
2018-05-08T06:10:18.864Z,13.53
2018-05-08T06:15:23.866Z,13.88
2018-05-08T06:17:52.918Z,13.98
2018-05-08T06:20:22.007Z,14.11
2018-05-08T06:22:51.693Z,14.24
2018-05-08T06:25:20.773Z,14.38
2018-05-08T06:27:50.581Z,14.58
2018-05-08T06:30:19.630Z,14.71
2018-05-08T06:32:50.176Z,14.90
2018-05-08T06:37:55.008Z,15.14
2018-05-08T06:40:24.174Z,15.30
2018-05-08T06:42:53.226Z,15.36
2018-05-08T06:45:22.288Z,15.39
2018-05-08T06:47:51.736Z,15.52
2018-05-08T06:50:21.235Z,15.55
2018-05-08T06:52:50.737Z,15.78
2018-05-08T06:55:19.805Z,15.84
2018-05-08T06:57:50.003Z,15.96
2018-05-08T07:00:19.192Z,16.04
2018-05-08T07:05:24.021Z,16.21
2018-05-08T07:07:53.349Z,16.40
2018-05-08T07:10:22.406Z,16.49
2018-05-08T07:15:27.327Z,16.63
2018-05-08T07:17:56.506Z,16.73
2018-05-08T07:20:25.633Z,16.85
2018-05-08T07:22:55.576Z,16.93
2018-05-08T07:25:24.597Z,17.06
2018-05-08T07:27:54.279Z,17.18
2018-05-08T07:30:23.342Z,17.28
2018-05-08T07:32:52.749Z,17.40
2018-05-08T07:35:21.823Z,17.54
2018-05-08T07:40:26.645Z,17.85
2018-05-08T07:42:56.932Z,18.03
2018-05-08T07:45:26.058Z,18.06
2018-05-08T07:50:30.818Z,18.11
2018-05-08T07:53:00.297Z,18.19
2018-05-08T07:55:29.386Z,18.23
2018-05-08T07:57:59.316Z,18.28
2018-05-08T08:00:28.356Z,18.36
2018-05-08T08:02:57.931Z,18.59
2018-05-08T08:05:26.982Z,18.53
2018-05-08T08:07:56.962Z,18.59
2018-05-08T08:10:26.020Z,18.98
2018-05-08T08:12:55.214Z,19.27
2018-05-08T08:15:24.266Z,19.61
2018-05-08T08:17:53.634Z,19.82
2018-05-08T08:20:22.690Z,19.97
2018-05-08T08:22:51.827Z,20.09
2018-05-08T08:25:21.454Z,20.00
2018-05-08T08:27:50.521Z,20.13
2018-05-08T08:30:20.387Z,20.15
2018-05-08T08:32:49.475Z,20.32
2018-05-08T08:35:18.509Z,20.46
2018-05-08T08:40:23.893Z,20.59
2018-05-08T08:42:52.955Z,20.63
2018-05-08T08:45:22.426Z,20.65
2018-05-08T08:47:51.577Z,20.97
2018-05-08T08:50:21.195Z,21.21
2018-05-08T08:55:26.055Z,21.79
2018-05-08T08:57:55.118Z,22.00
2018-05-08T09:00:24.148Z,21.69
2018-05-08T09:02:53.225Z,21.83
2018-05-08T09:05:22.278Z,21.80
2018-05-08T09:07:51.332Z,22.01
2018-05-08T09:10:20.393Z,22.84
2018-05-08T09:12:49.700Z,24.31
2018-05-08T09:15:18.730Z,24.61
2018-05-08T09:17:48.047Z,26.74
2018-05-08T09:20:17.097Z,27.41
2018-05-08T09:22:46.370Z,29.20
2018-05-08T09:25:15.423Z,29.28
2018-05-08T09:27:44.470Z,30.11
2018-05-08T09:30:13.534Z,31.61
2018-05-08T09:32:42.603Z,31.59
2018-05-08T09:35:11.638Z,31.40
2018-05-08T09:37:40.693Z,28.59
2018-05-08T09:42:46.394Z,33.29
2018-05-08T09:45:15.426Z,31.15
2018-05-08T09:47:44.686Z,31.86
2018-05-08T09:50:13.727Z,31.81
2018-05-08T09:52:43.142Z,32.65
2018-05-08T09:57:47.962Z,34.56
2018-05-08T10:00:17.651Z,34.67
2018-05-08T10:02:46.705Z,36.43
2018-05-08T10:05:16.126Z,34.26
2018-05-08T10:07:45.223Z,31.34
2018-05-08T10:10:15.568Z,34.88
2018-05-08T10:12:44.610Z,36.41
2018-05-08T10:15:14.119Z,37.45
2018-05-08T10:20:20.439Z,34.24
2018-05-08T10:22:49.505Z,37.11
2018-05-08T10:25:18.531Z,36.65
2018-05-08T10:30:23.923Z,37.25
2018-05-08T10:32:52.985Z,37.31
2018-05-08T10:35:22.051Z,36.46
2018-05-08T10:37:51.124Z,35.08
2018-05-08T10:40:20.159Z,33.53
2018-05-08T10:42:49.639Z,36.43
2018-05-08T10:45:18.889Z,34.15
2018-05-08T10:47:48.299Z,36.11
2018-05-08T10:50:17.344Z,36.76
2018-05-08T10:52:46.519Z,38.20
2018-05-08T10:55:15.561Z,39.22
2018-05-08T10:57:44.618Z,39.79
2018-05-08T11:00:14.690Z,37.33
2018-05-08T11:02:43.756Z,39.22
2018-05-08T11:05:12.800Z,40.11
2018-05-08T11:07:41.866Z,40.09
2018-05-08T11:10:10.914Z,37.68
2018-05-08T11:15:15.851Z,39.48
2018-05-08T11:17:47.350Z,40.33
2018-05-08T11:20:16.408Z,39.03
2018-05-08T11:22:45.955Z,37.52
2018-05-08T11:25:14.993Z,36.96
2018-05-08T11:30:19.878Z,39.90
2018-05-08T11:32:48.951Z,38.18
2018-05-08T11:35:18.001Z,38.73
2018-05-08T11:37:47.054Z,39.39
2018-05-08T11:40:16.595Z,41.11
2018-05-08T11:42:45.645Z,41.61
2018-05-08T11:45:15.940Z,40.74
2018-05-08T11:47:45.010Z,41.02
2018-05-08T11:50:14.043Z,40.72
2018-05-08T11:52:43.202Z,40.58
2018-05-08T11:57:48.068Z,40.07
2018-05-08T12:00:17.139Z,39.60
2018-05-08T12:02:46.182Z,37.67
2018-05-08T12:05:15.718Z,39.64
2018-05-08T12:07:44.745Z,40.04
2018-05-08T12:10:14.253Z,41.17
2018-05-08T12:15:19.123Z,42.65
2018-05-08T12:20:23.970Z,40.48
2018-05-08T12:22:53.027Z,37.32
2018-05-08T12:25:22.704Z,38.03
2018-05-08T12:27:51.750Z,38.32
2018-05-08T12:30:22.404Z,37.68
2018-05-08T12:32:51.496Z,38.60
2018-05-08T12:35:20.556Z,40.84
2018-05-08T12:37:49.822Z,40.03
2018-05-08T12:40:18.861Z,41.59
2018-05-08T12:42:48.407Z,42.27
2018-05-08T12:45:17.468Z,42.43
2018-05-08T12:47:46.514Z,42.26
2018-05-08T12:50:15.558Z,41.45
2018-05-08T12:52:44.616Z,41.06
2018-05-08T12:55:14.226Z,43.11
2018-05-08T12:57:43.283Z,42.46
2018-05-08T13:00:12.409Z,43.59
2018-05-08T13:05:17.612Z,40.59
2018-05-08T13:07:46.582Z,41.76
2018-05-08T13:10:15.655Z,44.12
2018-05-08T13:12:44.951Z,40.29
2018-05-08T13:15:14.051Z,39.81
2018-05-08T13:17:43.495Z,39.66
2018-05-08T13:20:12.573Z,39.48
2018-05-08T13:22:41.931Z,41.88
2018-05-08T13:25:10.902Z,42.51
2018-05-08T13:27:39.971Z,40.97
2018-05-08T13:30:09.596Z,39.19
2018-05-08T13:32:38.643Z,41.10
2018-05-08T13:35:07.706Z,42.12
2018-05-08T13:37:37.145Z,43.48
2018-05-08T13:40:06.277Z,42.36
2018-05-08T13:42:36.613Z,42.54
2018-05-08T13:45:05.664Z,41.73
2018-05-08T13:47:34.721Z,41.38
2018-05-08T13:52:39.583Z,43.22
2018-05-08T13:55:12.842Z,41.99
2018-05-08T13:57:42.244Z,42.03
2018-05-08T14:00:11.336Z,43.43
2018-05-08T14:02:40.405Z,44.31
2018-05-08T14:05:10.020Z,41.73
2018-05-08T14:07:40.022Z,41.88
2018-05-08T14:10:09.091Z,42.36
2018-05-08T14:12:38.391Z,43.01
2018-05-08T14:15:07.450Z,42.47
2018-05-08T14:17:37.056Z,41.52
2018-05-08T14:20:06.188Z,41.25
2018-05-08T14:22:35.254Z,39.53
2018-05-08T14:30:15.936Z,41.53
2018-05-08T14:32:45.299Z,43.02
2018-05-08T14:35:14.357Z,41.34
2018-05-08T14:37:43.885Z,41.51
2018-05-08T14:40:12.922Z,42.37
2018-05-08T14:42:41.979Z,42.55
2018-05-08T14:45:11.472Z,40.46
2018-05-08T14:47:40.547Z,38.01
2018-05-08T14:50:09.702Z,37.51
2018-05-08T14:52:38.746Z,37.77
2018-05-08T14:57:43.597Z,39.38
2018-05-08T15:02:48.781Z,41.89
2018-05-08T15:05:18.251Z,40.93
2018-05-08T15:07:47.316Z,43.31
2018-05-08T15:10:16.362Z,41.22
2018-05-08T15:15:21.674Z,41.49
2018-05-08T15:17:50.758Z,41.86
2018-05-08T15:20:19.811Z,41.39
2018-05-08T15:22:49.486Z,41.18
2018-05-08T15:25:18.553Z,41.39
2018-05-08T15:27:48.087Z,37.82
2018-05-08T15:30:17.123Z,37.83
2018-05-08T15:32:46.177Z,39.82
2018-05-08T15:35:15.368Z,39.43
2018-05-08T15:37:44.418Z,39.40
2018-05-08T15:40:13.500Z,39.87
2018-05-08T15:42:42.538Z,38.63
2018-05-08T15:45:11.594Z,40.30
2018-05-08T15:47:41.629Z,40.06
2018-05-08T15:50:10.701Z,40.17
2018-05-08T15:52:40.584Z,40.33
2018-05-08T15:55:09.916Z,41.51
2018-05-08T15:57:38.871Z,38.54
2018-05-08T16:00:07.923Z,38.05
2018-05-08T16:02:37.946Z,39.34
2018-05-08T16:07:42.902Z,39.54
2018-05-08T16:12:47.813Z,40.16
2018-05-08T16:15:17.668Z,40.99
2018-05-08T16:17:46.745Z,37.35
2018-05-08T16:20:15.794Z,35.32
2018-05-08T16:22:45.294Z,32.38
2018-05-08T16:25:14.354Z,30.93
2018-05-08T16:30:19.425Z,28.09
2018-05-08T16:32:48.856Z,27.99
2018-05-08T16:35:17.913Z,27.86
2018-05-08T16:37:46.970Z,27.32
2018-05-08T16:40:16.305Z,26.83
2018-05-08T16:42:45.361Z,26.83
2018-05-08T16:45:14.426Z,26.63
2018-05-08T16:47:43.804Z,25.96
2018-05-08T16:50:12.859Z,25.39
2018-05-08T16:52:41.947Z,24.76
2018-05-08T16:57:46.790Z,24.72
2018-05-08T17:00:15.908Z,24.40
2018-05-08T17:02:45.015Z,24.06
2018-05-08T17:05:14.117Z,23.99
2018-05-08T17:07:43.563Z,23.78
2018-05-08T17:10:12.615Z,23.51
2018-05-08T17:12:41.676Z,23.53
2018-05-08T17:15:11.169Z,23.41
2018-05-08T17:17:40.235Z,23.27
2018-05-08T17:20:09.278Z,23.10
2018-05-08T17:22:38.954Z,23.10
2018-05-08T17:25:07.987Z,23.02
2018-05-08T17:27:37.935Z,22.83
2018-05-08T17:30:06.983Z,22.67
2018-05-08T17:32:36.054Z,22.66
2018-05-08T17:35:05.580Z,22.62
2018-05-08T17:37:34.658Z,22.57
2018-05-08T17:40:04.699Z,22.41
2018-05-08T17:42:33.980Z,22.50
2018-05-08T17:47:39.918Z,22.69
2018-05-08T17:50:08.973Z,22.83
2018-05-08T17:52:38.145Z,22.64
2018-05-08T17:55:07.636Z,22.57
2018-05-08T17:57:36.701Z,22.76
2018-05-08T18:00:06.118Z,22.55
2018-05-08T18:02:35.179Z,22.54
2018-05-08T18:05:04.261Z,22.45
2018-05-08T18:07:33.591Z,22.33
2018-05-08T18:10:02.667Z,22.40
2018-05-08T18:12:31.727Z,22.16
2018-05-08T18:15:00.982Z,22.27
2018-05-08T18:17:30.163Z,21.92
2018-05-08T18:25:13.135Z,21.64
2018-05-08T18:27:42.202Z,21.69
2018-05-08T18:30:11.510Z,21.34
2018-05-08T18:32:40.546Z,21.18
2018-05-08T18:35:09.623Z,21.05
2018-05-08T18:37:39.269Z,20.90
2018-05-08T18:40:08.415Z,20.96
2018-05-08T18:42:37.519Z,20.92
2018-05-08T18:45:06.608Z,20.76
2018-05-08T18:47:35.909Z,20.56
2018-05-08T18:50:04.976Z,20.47
2018-05-08T18:52:34.035Z,20.33
2018-05-08T18:55:03.614Z,20.35
2018-05-08T18:57:32.750Z,20.18
2018-05-08T19:00:07.344Z,20.06
2018-05-08T19:02:36.483Z,19.82
2018-05-08T19:05:06.140Z,19.77
2018-05-08T19:07:35.219Z,19.82
2018-05-08T19:10:04.367Z,19.63
2018-05-08T19:12:33.462Z,19.54
2018-05-08T19:15:08.015Z,19.45
2018-05-08T19:17:38.300Z,19.30
2018-05-08T19:20:07.420Z,19.33
2018-05-08T19:22:36.478Z,19.16
2018-05-08T19:25:05.548Z,19.04
2018-05-08T19:27:34.828Z,18.90
2018-05-08T19:30:09.461Z,18.87
2018-05-08T19:32:38.761Z,18.84
2018-05-08T19:37:52.173Z,18.80
2018-05-08T19:40:21.213Z,18.59
2018-05-08T19:42:50.740Z,18.54
2018-05-08T19:45:19.783Z,18.65
2018-05-08T19:47:49.958Z,18.63
2018-05-08T19:50:19.057Z,18.34
2018-05-08T19:52:48.103Z,18.13
2018-05-08T19:55:18.063Z,17.95
2018-05-08T19:57:47.512Z,17.77
2018-05-08T20:00:16.486Z,17.92
2018-05-08T20:07:58.092Z,17.87
2018-05-08T20:10:27.274Z,17.67
2018-05-08T20:12:56.386Z,17.55
2018-05-08T20:15:25.428Z,17.45
2018-05-08T20:17:54.471Z,17.34
2018-05-08T20:20:23.666Z,17.21
2018-05-08T20:22:52.770Z,17.08
2018-05-08T20:27:58.584Z,17.13
2018-05-08T20:30:29.636Z,16.97
2018-05-08T20:32:58.683Z,16.82
2018-05-08T20:35:27.747Z,16.79
2018-05-08T20:37:57.058Z,16.81
2018-05-08T20:45:38.091Z,17.03
2018-05-08T20:50:42.929Z,16.72
2018-05-08T20:53:11.986Z,16.51
2018-05-08T20:55:41.131Z,16.33
2018-05-08T20:58:10.177Z,16.19
2018-05-08T21:00:39.266Z,16.07
2018-05-08T21:03:09.010Z,15.99
2018-05-08T21:05:38.049Z,15.87
2018-05-08T21:08:07.190Z,15.78
2018-05-08T21:10:36.255Z,15.72
2018-05-08T21:13:05.318Z,15.77
2018-05-08T21:15:34.390Z,15.87
2018-05-08T21:18:03.670Z,15.60
2018-05-08T21:20:33.634Z,15.62
2018-05-08T21:23:02.689Z,15.35
2018-05-08T21:25:31.780Z,15.18
2018-05-08T21:28:06.394Z,15.07
2018-05-08T21:30:40.910Z,14.98
2018-05-08T21:33:09.926Z,14.92
2018-05-08T21:35:38.965Z,14.88
2018-05-08T21:38:08.083Z,14.85
2018-05-08T21:40:37.117Z,14.97
2018-05-08T21:43:06.403Z,14.86
2018-05-08T21:45:35.473Z,14.78
2018-05-08T21:48:04.512Z,14.79
2018-05-08T21:50:33.574Z,14.80
2018-05-08T21:53:02.677Z,14.98
2018-05-08T21:55:32.861Z,14.93
2018-05-08T22:00:38.080Z,14.94
2018-05-08T22:03:07.138Z,15.00
2018-05-08T22:05:36.189Z,14.77
2018-05-08T22:08:05.249Z,14.59
2018-05-08T22:10:34.560Z,14.53
2018-05-08T22:13:03.667Z,14.68
2018-05-08T22:15:32.741Z,14.86
2018-05-08T22:18:01.966Z,14.93
2018-05-08T22:20:31.150Z,14.91
2018-05-08T22:25:36.790Z,14.87
2018-05-08T22:28:06.108Z,14.98
2018-05-08T22:30:35.494Z,14.86
2018-05-08T22:33:04.717Z,14.70
2018-05-08T22:35:34.145Z,14.63
2018-05-08T22:38:03.249Z,14.68
2018-05-08T22:40:32.571Z,14.53
2018-05-08T22:43:01.881Z,14.43
2018-05-08T22:45:31.402Z,14.42
2018-05-08T22:50:36.673Z,14.71
2018-05-08T22:53:05.978Z,14.88
2018-05-08T22:55:35.220Z,14.94
2018-05-08T23:00:40.522Z,15.00
2018-05-08T23:03:09.730Z,15.27
2018-05-08T23:05:38.937Z,15.18
2018-05-08T23:08:12.942Z,15.19
2018-05-08T23:10:42.945Z,15.13
2018-05-08T23:13:12.358Z,15.10
2018-05-08T23:15:41.382Z,15.02
2018-05-08T23:18:10.465Z,14.99
2018-05-08T23:20:39.832Z,14.98
2018-05-08T23:23:09.576Z,15.01
2018-05-08T23:25:38.656Z,14.98
2018-05-08T23:28:12.224Z,14.94
2018-05-08T23:30:41.587Z,14.84
2018-05-08T23:33:10.659Z,14.90
2018-05-08T23:35:39.718Z,14.74
2018-05-08T23:38:08.926Z,14.58
2018-05-08T23:40:39.189Z,14.49
2018-05-08T23:43:08.826Z,14.58
2018-05-08T23:45:38.859Z,14.39
2018-05-08T23:48:09.010Z,14.22
2018-05-08T23:50:38.053Z,14.11
2018-05-08T23:53:07.088Z,14.12
2018-05-08T23:55:36.489Z,14.15
2018-05-08T23:58:06.622Z,14.30
